createdAt,value
2023-05-25T00:00:18.019Z,53.9
2023-05-25T00:05:18.161Z,53.7
2023-05-25T00:10:18.037Z,53.3
2023-05-25T00:15:18.694Z,53.0
2023-05-25T00:20:18.131Z,52.8
2023-05-25T00:25:18.131Z,52.6
2023-05-25T00:30:18.281Z,52.3
2023-05-25T00:35:18.058Z,51.9
2023-05-25T00:40:18.040Z,51.7
2023-05-25T00:45:18.493Z,51.6
2023-05-25T00:50:18.359Z,51.6
2023-05-25T00:55:18.130Z,51.6
2023-05-25T01:00:18.242Z,51.7
2023-05-25T01:05:18.238Z,51.7
2023-05-25T01:10:16.525Z,51.6
2023-05-25T01:15:16.616Z,51.7
2023-05-25T01:20:16.471Z,51.7
2023-05-25T01:25:17.843Z,51.7
2023-05-25T01:30:16.512Z,51.7
2023-05-25T01:35:16.572Z,51.7
2023-05-25T01:40:16.546Z,51.6
2023-05-25T01:45:16.598Z,51.6
2023-05-25T01:50:16.535Z,51.5
2023-05-25T01:55:16.472Z,51.5
2023-05-25T02:00:17.172Z,51.4
2023-05-25T02:05:16.513Z,51.4
2023-05-25T02:10:16.560Z,51.4
2023-05-25T02:15:16.641Z,51.3
2023-05-25T02:20:16.782Z,51.3
2023-05-25T02:25:16.896Z,51.3
2023-05-25T02:30:16.618Z,51.3
2023-05-25T02:35:17.006Z,51.3
2023-05-25T02:40:16.578Z,51.4
2023-05-25T02:45:16.780Z,51.3
2023-05-25T02:50:16.597Z,51.3
2023-05-25T02:55:16.613Z,51.2
2023-05-25T03:00:16.647Z,51.3
2023-05-25T03:05:16.701Z,51.3
2023-05-25T03:10:16.821Z,51.3
2023-05-25T03:15:16.861Z,51.1
2023-05-25T03:20:16.737Z,51.1
2023-05-25T03:25:17.862Z,51.1
2023-05-25T03:30:16.783Z,51.2
2023-05-25T03:35:16.724Z,51.1
2023-05-25T03:40:16.752Z,51.1
2023-05-25T03:45:17.207Z,51.1
2023-05-25T03:50:16.650Z,51.1
2023-05-25T03:55:16.686Z,51.1
2023-05-25T04:00:17.784Z,51.1
2023-05-25T04:25:23.380Z,51.3
2023-05-25T04:35:17.594Z,51.2
2023-05-25T04:40:17.772Z,51.2
2023-05-25T04:45:17.831Z,51.2
2023-05-25T04:50:17.838Z,51.2
2023-05-25T04:55:17.957Z,51.2
2023-05-25T05:00:17.658Z,51.2
2023-05-25T05:05:17.819Z,51.2
2023-05-25T05:10:17.732Z,51.2
2023-05-25T05:15:17.839Z,51.2
2023-05-25T05:20:17.841Z,51.2
2023-05-25T05:25:18.787Z,51.2
2023-05-25T05:30:17.908Z,51.2
2023-05-25T05:35:18.087Z,51.3
2023-05-25T05:40:17.782Z,51.3
2023-05-25T05:45:18.159Z,51.3
2023-05-25T05:50:18.001Z,51.4
2023-05-25T05:55:17.757Z,51.4
2023-05-25T06:00:18.181Z,51.5
2023-05-25T06:05:17.987Z,51.5
2023-05-25T06:10:17.807Z,51.5
2023-05-25T06:15:17.911Z,51.5
2023-05-25T06:20:17.912Z,51.4
2023-05-25T06:25:17.816Z,51.4
2023-05-25T06:30:17.976Z,51.5
2023-05-25T06:35:18.071Z,51.5
2023-05-25T06:40:18.164Z,51.5
2023-05-25T06:45:17.979Z,51.4
2023-05-25T06:50:17.950Z,51.4
2023-05-25T06:55:17.903Z,51.3
2023-05-25T07:00:18.067Z,51.0
2023-05-25T07:05:17.926Z,51.0
2023-05-25T07:10:18.107Z,51.0
2023-05-25T07:15:18.062Z,51.2
2023-05-25T07:20:18.002Z,51.3
2023-05-25T07:25:19.104Z,51.3
2023-05-25T07:30:18.101Z,51.3
2023-05-25T07:35:18.168Z,51.2
2023-05-25T07:40:19.944Z,51.3
2023-05-25T07:45:18.169Z,51.3
2023-05-25T07:50:18.132Z,51.4
2023-05-25T07:55:18.253Z,51.4
2023-05-25T08:00:18.256Z,51.3
2023-05-25T08:05:18.176Z,51.2
2023-05-25T08:10:18.120Z,51.1
2023-05-25T08:15:18.774Z,51.1
2023-05-25T08:20:18.196Z,51.0
2023-05-25T08:25:18.161Z,51.0
2023-05-25T08:30:18.230Z,50.9
2023-05-25T08:35:16.492Z,50.8
2023-05-25T08:40:16.476Z,50.8
2023-05-25T08:45:26.888Z,50.7
2023-05-25T08:50:16.757Z,50.7
2023-05-25T08:55:16.525Z,50.6
2023-05-25T09:00:16.472Z,50.6
2023-05-25T09:05:16.531Z,50.6
2023-05-25T09:10:16.448Z,50.6
2023-05-25T09:15:16.574Z,50.6
2023-05-25T09:20:16.541Z,50.5
2023-05-25T09:25:17.813Z,50.4
2023-05-25T09:30:16.801Z,50.4
2023-05-25T09:35:16.726Z,50.4
2023-05-25T09:40:17.601Z,50.4
2023-05-25T09:45:16.755Z,50.4
2023-05-25T09:50:16.619Z,50.4
2023-05-25T09:55:16.630Z,50.4
2023-05-25T10:00:17.481Z,50.5
2023-05-25T10:05:16.535Z,50.4
2023-05-25T10:10:16.647Z,50.4
2023-05-25T10:15:16.770Z,50.4
2023-05-25T10:20:16.714Z,50.4
2023-05-25T10:25:16.614Z,50.5
2023-05-25T10:30:16.770Z,50.5
2023-05-25T10:35:16.747Z,50.5
2023-05-25T10:40:16.726Z,50.6
2023-05-25T10:45:16.944Z,50.7
2023-05-25T10:50:16.825Z,50.7
2023-05-25T10:55:16.779Z,50.7
2023-05-25T11:00:16.910Z,50.7
2023-05-25T11:05:16.676Z,50.6
2023-05-25T11:10:17.032Z,50.7
2023-05-25T11:15:16.936Z,50.8
2023-05-25T11:20:16.768Z,50.8
2023-05-25T11:25:17.673Z,50.9
2023-05-25T11:30:17.066Z,51.0
2023-05-25T11:35:16.817Z,51.2
2023-05-25T11:40:16.960Z,51.4
2023-05-25T11:45:17.357Z,51.4
2023-05-25T11:50:16.814Z,51.7
2023-05-25T11:55:17.078Z,52.1
2023-05-25T12:00:17.312Z,52.4
2023-05-25T12:05:16.799Z,52.7
2023-05-25T12:10:16.934Z,53.0
2023-05-25T12:15:19.778Z,53.1
2023-05-25T12:20:17.346Z,53.3
2023-05-25T12:25:16.774Z,53.4
2023-05-25T12:30:17.037Z,53.6
2023-05-25T12:35:16.917Z,53.7
2023-05-25T12:40:16.968Z,53.7
2023-05-25T12:45:17.016Z,53.8
2023-05-25T12:50:17.002Z,53.9
2023-05-25T12:55:17.265Z,54.1
2023-05-25T13:00:17.141Z,54.2
2023-05-25T13:05:17.039Z,54.3
2023-05-25T13:10:17.104Z,54.6
2023-05-25T13:15:17.659Z,54.8
2023-05-25T13:20:17.318Z,54.8
2023-05-25T13:25:18.534Z,55.3
2023-05-25T13:30:17.237Z,55.5
2023-05-25T13:35:17.442Z,55.9
2023-05-25T13:40:17.116Z,55.9
2023-05-25T13:45:17.300Z,56.0
2023-05-25T13:50:17.193Z,56.3
2023-05-25T13:55:17.189Z,56.6
2023-05-25T14:00:17.613Z,56.9
2023-05-25T14:05:17.163Z,57.0
2023-05-25T14:10:17.243Z,57.2
2023-05-25T14:15:17.559Z,57.8
2023-05-25T14:20:17.309Z,58.4
2023-05-25T14:25:17.216Z,58.3
2023-05-25T14:30:17.651Z,58.3
2023-05-25T14:55:17.301Z,60.1
2023-05-25T15:00:17.221Z,60.4
2023-05-25T15:05:17.573Z,60.7
2023-05-25T15:10:17.239Z,60.7
2023-05-25T15:15:17.275Z,60.4
2023-05-25T15:20:17.339Z,59.6
2023-05-25T15:25:24.473Z,59.2
2023-05-25T15:30:17.441Z,59.8
2023-05-25T15:35:17.470Z,60.0
2023-05-25T15:40:17.491Z,60.1
2023-05-25T15:45:17.696Z,60.1
2023-05-25T15:50:17.335Z,60.2
2023-05-25T15:55:17.312Z,60.2
2023-05-25T16:00:17.460Z,60.3
2023-05-25T16:05:17.430Z,60.6
2023-05-25T16:10:17.420Z,60.6
2023-05-25T16:15:17.611Z,60.4
2023-05-25T16:20:17.465Z,60.4
2023-05-25T16:25:17.429Z,60.4
2023-05-25T16:30:18.187Z,60.7
2023-05-25T16:35:17.594Z,60.8
2023-05-25T16:40:17.668Z,60.0
2023-05-25T16:45:17.452Z,59.0
2023-05-25T16:50:17.612Z,58.0
2023-05-25T16:55:17.415Z,57.2
2023-05-25T17:00:17.779Z,57.0
2023-05-25T17:05:17.490Z,56.8
2023-05-25T17:10:17.607Z,56.9
2023-05-25T17:15:18.010Z,57.3
2023-05-25T17:20:17.638Z,58.1
2023-05-25T17:25:20.178Z,58.6
2023-05-25T17:30:17.927Z,59.3
2023-05-25T17:35:17.685Z,59.4
2023-05-25T17:40:17.610Z,59.4
2023-05-25T17:45:17.971Z,59.5
2023-05-25T17:50:17.617Z,59.8
2023-05-25T17:55:17.549Z,59.9
2023-05-25T18:00:17.915Z,60.1
2023-05-25T18:05:17.599Z,60.4
2023-05-25T18:10:17.828Z,60.1
2023-05-25T18:15:18.041Z,59.3
2023-05-25T18:20:17.707Z,59.1
2023-05-25T18:25:17.772Z,58.5
2023-05-25T18:30:17.717Z,58.8
2023-05-25T18:35:17.814Z,59.3
2023-05-25T18:40:17.642Z,59.6
2023-05-25T18:45:17.603Z,59.3
2023-05-25T18:50:17.759Z,59.3
2023-05-25T18:55:17.862Z,59.5
2023-05-25T19:00:17.649Z,59.9
2023-05-25T19:05:17.775Z,59.0
2023-05-25T19:10:17.828Z,59.5
2023-05-25T19:15:17.733Z,59.8
2023-05-25T19:20:17.688Z,60.0
2023-05-25T19:25:18.564Z,59.9
2023-05-25T19:30:18.042Z,60.1
2023-05-25T19:35:17.641Z,60.1
2023-05-25T19:40:17.723Z,60.2
2023-05-25T19:45:19.375Z,61.0
2023-05-25T19:50:19.046Z,61.3
2023-05-25T19:55:18.718Z,61.9
2023-05-25T20:00:26.211Z,61.0
2023-05-25T20:05:18.009Z,60.3
2023-05-25T20:10:17.812Z,61.0
2023-05-25T20:15:17.810Z,61.0
2023-05-25T20:20:17.971Z,60.8
2023-05-25T20:25:17.805Z,61.0
2023-05-25T20:30:17.904Z,60.0
2023-05-25T20:35:17.817Z,59.9
2023-05-25T20:40:17.817Z,58.9
2023-05-25T20:45:18.233Z,58.7
2023-05-25T20:50:17.892Z,58.6
2023-05-25T20:55:18.146Z,58.7
2023-05-25T21:00:17.973Z,58.4
2023-05-25T21:05:17.809Z,58.8
2023-05-25T21:10:17.869Z,59.2
2023-05-25T21:15:18.138Z,59.7
2023-05-25T21:20:17.882Z,60.4
2023-05-25T21:25:19.052Z,60.8
2023-05-25T21:30:17.932Z,60.6
2023-05-25T21:35:17.852Z,60.0
2023-05-25T21:40:17.950Z,59.3
2023-05-25T21:45:16.463Z,59.0
2023-05-25T21:50:17.856Z,58.4
2023-05-25T21:55:17.840Z,57.9
2023-05-25T22:00:18.638Z,57.7
2023-05-25T22:05:18.096Z,57.4
2023-05-25T22:10:17.921Z,57.4
2023-05-25T22:15:18.073Z,57.4
2023-05-25T22:20:17.992Z,57.1
2023-05-25T22:25:18.000Z,57.1
2023-05-25T22:30:18.092Z,57.2
2023-05-25T22:35:18.257Z,57.4
2023-05-25T22:40:18.079Z,57.4
2023-05-25T22:45:18.062Z,57.3
2023-05-25T22:50:18.205Z,57.3
2023-05-25T22:55:18.211Z,57.1
2023-05-25T23:00:18.215Z,56.8
2023-05-25T23:05:18.128Z,56.7
2023-05-25T23:10:18.537Z,56.5
2023-05-25T23:15:18.266Z,56.4
2023-05-25T23:20:18.243Z,56.5
2023-05-25T23:25:18.907Z,56.6
2023-05-25T23:30:18.237Z,56.6
2023-05-25T23:35:16.797Z,56.5
2023-05-25T23:40:16.493Z,56.4
2023-05-25T23:45:16.755Z,56.3
2023-05-25T23:50:16.547Z,56.2
2023-05-25T23:55:16.601Z,56.3
